Brookfield, Illinois
Current Conditions -  °F | °C
As of 1:53 AM on Monday 26 Jan 2015 (Local Time) from KMDW Reporting Station
Broken Clouds Broken Clouds  
Wind Chill: 17°   Ceiling: 2300
Heat Index: 25°   Visibility: 10mi
Dew Point: 17°   Wind: 7mph
Humidity: 72%   Direction: 40°NE
Pressure: 29.99"   Gusts: NA
Location:  41.82°N, 87.84°W
Report Text: KMDW 260753Z 04006KT 10SM BKN023 M04/M08 A2999 RMK AO2 SLP168 T10391083
Loading
Personal Weather Stations






























Interactive Weather Map New forecast layout! Learn more

10-Day Weather Forecast

Advertisements
Track Severe Weather on mobile